Terminal Aerodrome Forecast
Issued by NWS

Home | Current Version | Previous Version | Text Only | Print | Product List | Glossary On
Versions: 1 2 3 4 5 6 7 8 9 10 11 12 13 14 15 16 17 18 19 20 21 22
000
FTPA31 PHFO 271700
TAFOGG
TAF
PHOG 271736Z 2718/2818 04010KT P6SM FEW025 SCT050
     FM272000 06017G23KT P6SM FEW030 SCT050
     FM280400 03010KT P6SM FEW050
      AMD LTD TO WX VIS AND WIND 2809/2816=

USA.gov is the U.S. government's official web portal to all federal, state and local government web resources and services.